createdAt,value
2019-01-28T00:01:41.587Z,9.63
2019-01-28T00:04:11.016Z,9.30
2019-01-28T00:06:40.420Z,9.85
2019-01-28T00:09:10.054Z,10.43
2019-01-28T00:11:39.436Z,9.25
2019-01-28T00:14:09.882Z,10.50
2019-01-28T00:16:39.234Z,9.88
2019-01-28T00:19:08.574Z,8.53
2019-01-28T00:21:38.069Z,9.90
2019-01-28T00:24:07.538Z,10.38
2019-01-28T00:26:36.879Z,9.40
2019-01-28T00:29:06.489Z,9.03
2019-01-28T00:31:35.880Z,9.60
2019-01-28T00:34:05.811Z,8.50
2019-01-28T00:36:35.815Z,8.53
2019-01-28T00:39:08.562Z,9.00
2019-01-28T00:41:38.071Z,8.53
2019-01-28T00:44:07.426Z,8.88
2019-01-28T00:46:36.854Z,8.55
2019-01-28T00:49:06.326Z,7.92
2019-01-28T00:51:35.674Z,8.45
2019-01-28T00:54:05.437Z,7.83
2019-01-28T00:56:34.764Z,8.00
2019-01-28T00:59:04.117Z,7.67
2019-01-28T01:01:33.504Z,7.37
2019-01-28T01:04:02.872Z,7.60
2019-01-28T01:06:32.324Z,7.95
2019-01-28T01:09:01.658Z,8.35
2019-01-28T01:11:31.028Z,6.65
2019-01-28T01:14:00.437Z,7.65
2019-01-28T01:16:29.752Z,7.25
2019-01-28T01:18:59.203Z,6.97
2019-01-28T01:21:28.562Z,6.97
2019-01-28T01:23:57.913Z,7.72
2019-01-28T01:26:27.258Z,7.05
2019-01-28T01:28:56.610Z,7.00
2019-01-28T01:31:25.948Z,6.53
2019-01-28T01:33:55.329Z,6.40
2019-01-28T01:36:24.691Z,7.65
2019-01-28T01:38:54.013Z,6.65
2019-01-28T01:41:23.414Z,6.15
2019-01-28T01:43:52.781Z,6.50
2019-01-28T01:46:22.123Z,6.47
2019-01-28T01:48:51.536Z,6.15
2019-01-28T01:51:20.885Z,6.37
2019-01-28T01:53:50.229Z,6.70
2019-01-28T01:56:19.676Z,6.28
2019-01-28T01:58:49.012Z,6.60
2019-01-28T02:01:18.603Z,6.50
2019-01-28T02:03:47.995Z,6.15
2019-01-28T02:06:17.556Z,5.97
2019-01-28T02:08:46.910Z,5.78
2019-01-28T02:11:16.373Z,6.00
2019-01-28T02:13:45.806Z,5.70
2019-01-28T02:16:15.163Z,6.12
2019-01-28T02:18:44.578Z,5.80
2019-01-28T02:21:14.317Z,5.83
2019-01-28T02:23:43.654Z,5.67
2019-01-28T02:26:13.065Z,6.15
2019-01-28T02:28:42.449Z,5.80
2019-01-28T02:31:11.853Z,5.47
2019-01-28T02:33:41.282Z,5.70
2019-01-28T02:36:10.667Z,5.37
2019-01-28T02:38:42.029Z,5.40
2019-01-28T02:41:11.393Z,5.78
2019-01-28T02:43:40.713Z,5.05
2019-01-28T02:46:10.113Z,5.22
2019-01-28T02:48:39.468Z,5.30
2019-01-28T02:51:08.843Z,5.20
2019-01-28T02:53:39.100Z,5.12
2019-01-28T02:56:08.448Z,4.92
2019-01-28T02:58:37.792Z,5.00
2019-01-28T03:01:07.299Z,5.00
2019-01-28T03:03:36.637Z,5.47
2019-01-28T03:06:06.080Z,4.90
2019-01-28T03:08:35.494Z,4.33
2019-01-28T03:11:04.835Z,4.70
2019-01-28T03:13:34.205Z,4.58
2019-01-28T03:16:03.712Z,4.22
2019-01-28T03:18:33.042Z,4.58
2019-01-28T03:21:02.518Z,4.47
2019-01-28T03:23:31.984Z,4.87
2019-01-28T03:26:01.345Z,3.98
2019-01-28T03:28:30.683Z,4.25
2019-01-28T03:31:00.082Z,4.17
2019-01-28T03:33:29.444Z,3.77
2019-01-28T03:35:58.754Z,3.98
2019-01-28T03:38:28.123Z,3.65
2019-01-28T03:40:57.500Z,3.87
2019-01-28T03:43:26.878Z,3.35
2019-01-28T03:45:56.196Z,3.37
2019-01-28T03:48:25.525Z,3.85
2019-01-28T03:50:54.846Z,3.27
2019-01-28T03:53:24.289Z,3.27
2019-01-28T03:55:53.673Z,3.30
2019-01-28T03:58:23.056Z,3.27
2019-01-28T04:00:52.438Z,3.35
2019-01-28T04:03:21.773Z,3.30
2019-01-28T04:05:51.193Z,3.42
2019-01-28T04:08:20.549Z,3.12
2019-01-28T04:10:49.882Z,3.37
2019-01-28T04:13:19.340Z,2.60
2019-01-28T04:15:48.689Z,3.42
2019-01-28T04:18:18.044Z,3.12
2019-01-28T04:20:47.439Z,3.08
2019-01-28T04:23:16.765Z,3.20
2019-01-28T04:25:46.082Z,2.50
2019-01-28T04:28:15.473Z,2.67
2019-01-28T04:30:44.835Z,2.72
2019-01-28T04:33:14.239Z,2.62
2019-01-28T04:35:43.631Z,2.47
2019-01-28T04:38:12.941Z,2.30
2019-01-28T04:40:42.309Z,2.62
2019-01-28T04:43:11.777Z,2.90
2019-01-28T04:45:41.105Z,2.60
2019-01-28T04:48:10.461Z,2.45
2019-01-28T04:50:39.833Z,2.50
2019-01-28T04:53:09.189Z,2.62
2019-01-28T04:55:38.507Z,2.75
2019-01-28T04:58:07.905Z,2.72
2019-01-28T05:00:37.228Z,2.72
2019-01-28T05:03:06.553Z,2.35
2019-01-28T05:05:35.976Z,2.60
2019-01-28T05:08:05.410Z,2.67
2019-01-28T05:10:34.817Z,2.35
2019-01-28T05:13:05.003Z,2.50
2019-01-28T05:15:34.496Z,2.60
2019-01-28T05:18:04.093Z,2.45
2019-01-28T05:20:33.399Z,2.15
2019-01-28T05:23:02.728Z,2.67
2019-01-28T05:25:32.143Z,2.55
2019-01-28T05:28:01.480Z,2.20
2019-01-28T05:30:30.814Z,2.60
2019-01-28T05:33:00.212Z,2.20
2019-01-28T05:35:29.597Z,2.47
2019-01-28T05:37:58.955Z,1.82
2019-01-28T05:40:28.287Z,2.42
2019-01-28T05:42:57.620Z,2.42
2019-01-28T05:45:27.061Z,2.05
2019-01-28T05:47:56.497Z,2.30
2019-01-28T05:50:25.842Z,2.67
2019-01-28T05:52:55.245Z,2.47
2019-01-28T05:55:24.642Z,2.50
2019-01-28T05:57:53.996Z,2.05
2019-01-28T06:00:30.965Z,2.50
2019-01-28T06:03:00.297Z,2.17
2019-01-28T06:05:29.640Z,2.10
2019-01-28T06:07:58.957Z,3.42
2019-01-28T06:10:28.333Z,4.12
2019-01-28T06:12:57.690Z,4.72
2019-01-28T06:15:27.113Z,4.55
2019-01-28T06:17:56.654Z,3.90
2019-01-28T06:20:26.043Z,4.17
2019-01-28T06:22:55.421Z,4.67
2019-01-28T06:25:24.974Z,4.12
2019-01-28T06:27:54.363Z,3.95
2019-01-28T06:30:25.716Z,4.40
2019-01-28T06:32:55.208Z,4.05
2019-01-28T06:35:24.654Z,4.00
2019-01-28T06:37:54.217Z,4.95
2019-01-28T06:40:26.584Z,4.65
2019-01-28T06:42:55.976Z,4.67
2019-01-28T06:45:25.444Z,4.25
2019-01-28T06:47:54.798Z,3.95
2019-01-28T06:50:24.297Z,4.17
2019-01-28T06:52:53.639Z,4.37
2019-01-28T06:55:23.001Z,4.55
2019-01-28T06:57:52.364Z,4.45
2019-01-28T07:00:24.511Z,4.90
2019-01-28T07:02:54.309Z,4.15
2019-01-28T07:05:23.753Z,3.55
2019-01-28T07:07:53.165Z,3.85
2019-01-28T07:10:22.549Z,3.50
2019-01-28T07:12:51.951Z,4.00
2019-01-28T07:15:21.912Z,3.98
2019-01-28T07:17:55.145Z,3.67
2019-01-28T07:20:25.329Z,4.55
2019-01-28T07:22:54.962Z,4.03
2019-01-28T07:25:24.334Z,4.42
2019-01-28T07:27:53.818Z,4.28
2019-01-28T07:30:34.927Z,3.85
2019-01-28T07:33:04.353Z,4.47
2019-01-28T07:35:33.729Z,5.33
2019-01-28T07:38:03.163Z,6.37
2019-01-28T07:40:32.616Z,5.28
2019-01-28T07:43:01.962Z,5.28
2019-01-28T07:45:33.958Z,5.90
2019-01-28T07:48:03.472Z,5.08
2019-01-28T07:50:32.841Z,6.05
2019-01-28T07:53:02.186Z,5.60
2019-01-28T07:55:31.622Z,5.15
2019-01-28T07:58:01.031Z,5.30
2019-01-28T08:00:30.923Z,5.05
2019-01-28T08:03:00.617Z,5.58
2019-01-28T08:05:30.053Z,5.28
2019-01-28T08:07:59.503Z,4.87
2019-01-28T08:10:29.017Z,4.90
2019-01-28T08:12:58.448Z,5.35
2019-01-28T08:15:28.849Z,4.90
2019-01-28T08:17:58.210Z,4.60
2019-01-28T08:20:27.653Z,5.05
2019-01-28T08:22:57.628Z,5.37
2019-01-28T08:25:27.059Z,4.65
2019-01-28T08:27:56.425Z,4.95
2019-01-28T08:30:34.080Z,5.42
2019-01-28T08:33:03.444Z,4.53
2019-01-28T08:35:34.503Z,4.53
2019-01-28T08:38:04.195Z,4.60
2019-01-28T08:40:33.747Z,4.78
2019-01-28T08:43:03.228Z,4.90
2019-01-28T08:45:32.630Z,4.80
2019-01-28T08:48:02.008Z,4.90
2019-01-28T08:50:31.333Z,4.90
2019-01-28T08:53:00.715Z,4.78
2019-01-28T08:55:30.067Z,5.25
2019-01-28T08:57:59.410Z,5.00
2019-01-28T09:00:34.708Z,4.67
2019-01-28T09:03:04.230Z,4.92
2019-01-28T09:05:33.670Z,5.15
2019-01-28T09:08:03.069Z,4.78
2019-01-28T09:10:32.681Z,4.62
2019-01-28T09:13:02.079Z,5.25
2019-01-28T09:15:31.448Z,4.95
2019-01-28T09:18:00.945Z,5.28
2019-01-28T09:20:30.756Z,4.85
2019-01-28T09:23:00.172Z,5.78
2019-01-28T09:25:29.659Z,4.97
2019-01-28T09:27:59.005Z,4.97
2019-01-28T09:30:30.347Z,4.78
2019-01-28T09:32:59.955Z,5.72
2019-01-28T09:35:29.911Z,5.53
2019-01-28T09:37:59.542Z,5.35
2019-01-28T09:40:31.083Z,5.70
2019-01-28T09:43:00.527Z,5.40
2019-01-28T09:45:32.169Z,6.25
2019-01-28T09:48:01.720Z,6.08
2019-01-28T09:50:31.263Z,6.72
2019-01-28T09:53:00.695Z,6.60
2019-01-28T09:55:30.200Z,6.37
2019-01-28T09:57:59.709Z,6.53
2019-01-28T10:00:44.400Z,6.53
2019-01-28T10:03:13.725Z,6.60
2019-01-28T10:05:43.155Z,6.33
2019-01-28T10:08:12.968Z,6.83
2019-01-28T10:10:42.314Z,7.50
2019-01-28T10:13:11.841Z,12.05
2019-01-28T10:15:41.395Z,19.60
2019-01-28T10:18:10.776Z,20.20
2019-01-28T10:20:44.705Z,19.25
2019-01-28T10:23:15.243Z,17.15
2019-01-28T10:25:45.051Z,17.45
2019-01-28T10:28:14.396Z,17.05
2019-01-28T10:30:44.537Z,15.58
2019-01-28T10:33:13.919Z,15.80
2019-01-28T10:35:45.464Z,16.05
2019-01-28T10:38:15.032Z,15.08
2019-01-28T10:40:45.322Z,14.28
2019-01-28T10:43:14.834Z,13.48
2019-01-28T10:45:44.213Z,12.75
2019-01-28T10:48:14.093Z,14.20
2019-01-28T10:50:44.731Z,12.93
2019-01-28T10:53:14.168Z,12.98
2019-01-28T10:55:43.608Z,13.28
2019-01-28T10:58:13.072Z,12.25
2019-01-28T11:00:48.007Z,11.85
2019-01-28T11:03:20.250Z,11.68
2019-01-28T11:05:49.806Z,11.80
2019-01-28T11:08:19.187Z,12.43
2019-01-28T11:10:48.590Z,14.45
2019-01-28T11:13:18.141Z,14.55
2019-01-28T11:15:47.657Z,13.88
2019-01-28T11:18:36.879Z,12.90
2019-01-28T11:21:06.269Z,13.58
2019-01-28T11:23:35.843Z,15.95
2019-01-28T11:26:05.589Z,17.62
2019-01-28T11:28:35.176Z,22.50
2019-01-28T11:31:11.124Z,22.25
2019-01-28T11:33:40.638Z,22.15
2019-01-28T11:36:11.384Z,21.55
2019-01-28T11:38:40.863Z,22.02
2019-01-28T11:41:10.497Z,27.25
2019-01-28T11:43:39.974Z,29.45
2019-01-28T11:46:09.900Z,26.55
2019-01-28T11:48:39.565Z,26.37
2019-01-28T11:51:08.973Z,23.92
2019-01-28T11:53:38.363Z,25.27
2019-01-28T11:56:07.806Z,23.30
2019-01-28T11:58:37.160Z,22.62
2019-01-28T12:01:31.589Z,22.40
2019-01-28T12:04:01.073Z,21.65
2019-01-28T12:06:30.781Z,20.50
2019-01-28T12:09:00.132Z,19.45
2019-01-28T12:11:29.531Z,19.27
2019-01-28T12:13:58.939Z,19.00
2019-01-28T12:16:28.311Z,18.55
2019-01-28T12:18:57.688Z,20.92
2019-01-28T12:21:27.204Z,21.62
2019-01-28T12:23:56.580Z,21.20
2019-01-28T12:26:25.941Z,20.45
2019-01-28T12:28:55.598Z,19.77
2019-01-28T12:31:24.962Z,19.02
2019-01-28T12:33:54.335Z,17.67
2019-01-28T12:36:23.699Z,18.42
2019-01-28T12:38:53.067Z,20.32
2019-01-28T12:41:22.500Z,21.23
2019-01-28T12:43:51.908Z,21.48
2019-01-28T12:46:21.349Z,19.77
2019-01-28T12:48:50.763Z,19.67
2019-01-28T12:51:20.122Z,18.65
2019-01-28T12:53:49.462Z,18.10
2019-01-28T12:56:18.840Z,17.55
2019-01-28T12:58:50.026Z,17.57
2019-01-28T13:01:19.551Z,17.25
2019-01-28T13:03:48.969Z,16.57
2019-01-28T13:06:18.311Z,15.63
2019-01-28T13:08:47.737Z,15.95
2019-01-28T13:11:17.143Z,15.28
2019-01-28T13:13:46.515Z,13.58
2019-01-28T13:16:15.921Z,14.65
2019-01-28T13:18:45.292Z,15.08
2019-01-28T13:21:14.675Z,13.28
2019-01-28T13:23:44.070Z,12.88
2019-01-28T13:26:13.485Z,12.85
2019-01-28T13:28:42.889Z,13.30
2019-01-28T13:31:12.265Z,13.15
2019-01-28T13:33:41.642Z,13.25
2019-01-28T13:36:11.051Z,14.30
2019-01-28T13:38:40.434Z,13.85
2019-01-28T13:41:09.814Z,13.83
2019-01-28T13:43:39.174Z,13.38
2019-01-28T13:46:08.584Z,12.93
2019-01-28T13:48:38.036Z,13.20
2019-01-28T13:51:07.483Z,13.62
2019-01-28T13:53:36.896Z,13.15
2019-01-28T13:56:06.280Z,11.22
2019-01-28T13:58:35.633Z,12.68
2019-01-28T14:01:05.859Z,13.30
2019-01-28T14:03:35.287Z,15.85
2019-01-28T14:06:04.853Z,19.60
2019-01-28T14:08:34.215Z,19.12
2019-01-28T14:11:03.635Z,19.67
2019-01-28T14:13:32.991Z,18.45
2019-01-28T14:16:02.381Z,18.07
2019-01-28T14:18:31.856Z,17.77
2019-01-28T14:21:04.290Z,18.48
2019-01-28T14:23:33.672Z,18.17
2019-01-28T14:26:03.118Z,16.48
2019-01-28T14:28:32.492Z,16.52
2019-01-28T14:31:01.911Z,16.90
2019-01-28T14:33:31.304Z,16.20
2019-01-28T14:36:00.663Z,15.20
2019-01-28T14:38:30.067Z,15.10
2019-01-28T14:40:59.506Z,15.05
2019-01-28T14:43:28.869Z,14.50
2019-01-28T14:45:58.427Z,14.23
2019-01-28T14:48:27.774Z,14.18
2019-01-28T14:50:57.147Z,16.97
2019-01-28T14:53:26.553Z,19.95
2019-01-28T14:55:55.915Z,19.12
2019-01-28T14:58:25.390Z,19.00
2019-01-28T15:00:55.069Z,19.05
2019-01-28T15:03:24.438Z,18.00
2019-01-28T15:05:53.816Z,18.57
2019-01-28T15:08:23.261Z,17.87
2019-01-28T15:10:52.599Z,17.07
2019-01-28T15:13:22.016Z,17.67
2019-01-28T15:15:51.493Z,17.60
2019-01-28T15:18:21.809Z,17.57
2019-01-28T15:20:51.249Z,17.40
2019-01-28T15:23:20.661Z,18.32
2019-01-28T15:25:50.017Z,17.87
2019-01-28T15:28:19.502Z,17.07
2019-01-28T15:30:48.977Z,21.12
2019-01-28T15:33:18.348Z,26.27
2019-01-28T15:35:47.748Z,26.85
2019-01-28T15:38:17.096Z,32.40
2019-01-28T15:40:46.502Z,35.98
2019-01-28T15:43:15.963Z,35.15
2019-01-28T15:45:45.809Z,33.58
2019-01-28T15:48:15.146Z,32.35
2019-01-28T15:50:44.599Z,33.75
2019-01-28T15:53:13.939Z,30.40
2019-01-28T15:55:43.795Z,29.27
2019-01-28T15:58:14.157Z,29.20
2019-01-28T16:00:45.839Z,27.52
2019-01-28T16:03:16.006Z,27.00
2019-01-28T16:05:45.427Z,27.42
2019-01-28T16:08:14.846Z,24.70
2019-01-28T16:10:44.177Z,24.55
2019-01-28T16:13:13.623Z,23.22
2019-01-28T16:15:45.640Z,23.52
2019-01-28T16:18:15.000Z,22.80
2019-01-28T16:20:44.626Z,22.05
2019-01-28T16:23:14.038Z,21.12
2019-01-28T16:25:43.416Z,20.70
2019-01-28T16:28:12.791Z,20.82
2019-01-28T16:30:42.344Z,20.15
2019-01-28T16:33:11.779Z,18.75
2019-01-28T16:35:41.236Z,19.45
2019-01-28T16:38:10.703Z,17.67
2019-01-28T16:40:40.148Z,18.57
2019-01-28T16:43:09.684Z,16.52
2019-01-28T16:45:39.107Z,17.57
2019-01-28T16:48:09.465Z,16.30
2019-01-28T16:50:38.955Z,16.15
2019-01-28T16:53:08.962Z,15.90
2019-01-28T16:55:38.650Z,15.28
2019-01-28T16:58:08.489Z,15.08
2019-01-28T17:00:42.860Z,15.43
2019-01-28T17:03:13.764Z,14.30
2019-01-28T17:05:43.408Z,14.18
2019-01-28T17:08:12.841Z,14.63
2019-01-28T17:10:42.321Z,14.38
2019-01-28T17:13:11.766Z,13.70
2019-01-28T17:15:41.204Z,13.38
2019-01-28T17:18:10.804Z,13.78
2019-01-28T17:20:40.370Z,13.53
2019-01-28T17:23:09.757Z,16.00
2019-01-28T17:25:41.913Z,17.42
2019-01-28T17:28:11.683Z,17.48
2019-01-28T17:30:43.100Z,17.42
2019-01-28T17:33:12.559Z,18.35
2019-01-28T17:35:42.236Z,17.55
2019-01-28T17:38:11.813Z,20.60
2019-01-28T17:40:43.192Z,18.48
2019-01-28T17:43:13.647Z,17.35
2019-01-28T17:45:43.076Z,15.53
2019-01-28T17:48:12.763Z,16.02
2019-01-28T17:50:43.826Z,15.10
2019-01-28T17:53:13.531Z,14.68
2019-01-28T17:55:43.046Z,14.95
2019-01-28T17:58:12.536Z,14.05
2019-01-28T18:00:54.274Z,15.48
2019-01-28T18:03:23.912Z,14.00
2019-01-28T18:05:53.337Z,13.32
2019-01-28T18:08:22.843Z,13.15
2019-01-28T18:10:52.349Z,14.25
2019-01-28T18:13:21.736Z,13.18
2019-01-28T18:15:51.120Z,12.23
2019-01-28T18:18:20.529Z,12.68
2019-01-28T18:20:52.300Z,13.00
2019-01-28T18:23:32.009Z,12.95
2019-01-28T18:26:01.430Z,12.35
2019-01-28T18:28:30.875Z,12.88
2019-01-28T18:31:02.193Z,12.05
2019-01-28T18:33:31.587Z,11.88
2019-01-28T18:36:05.683Z,11.73
2019-01-28T18:38:32.115Z,11.50
2019-01-28T18:41:01.569Z,11.25
2019-01-28T18:43:30.962Z,11.35
2019-01-28T18:46:01.767Z,11.88
2019-01-28T18:48:31.284Z,11.70
2019-01-28T18:51:00.705Z,10.78
2019-01-28T18:53:30.249Z,10.63
2019-01-28T18:55:59.627Z,11.25
2019-01-28T18:58:29.114Z,10.48
2019-01-28T19:00:58.590Z,10.78
2019-01-28T19:03:29.402Z,10.03
2019-01-28T19:06:17.975Z,11.43
2019-01-28T19:09:09.130Z,10.58
2019-01-28T19:11:57.536Z,10.70
2019-01-28T19:14:45.992Z,10.30
2019-01-28T19:17:34.388Z,9.85
2019-01-28T19:20:42.784Z,9.90
2019-01-28T19:23:12.399Z,10.10
2019-01-28T19:25:42.048Z,9.35
2019-01-28T19:28:11.429Z,8.93
2019-01-28T19:30:40.885Z,9.05
2019-01-28T19:33:10.298Z,9.65
2019-01-28T19:35:39.939Z,10.03
2019-01-28T19:38:09.477Z,9.38
2019-01-28T19:40:39.055Z,9.43
2019-01-28T19:43:08.532Z,9.45
2019-01-28T19:45:37.963Z,9.40
2019-01-28T19:48:07.458Z,9.25
2019-01-28T19:50:36.987Z,8.95
2019-01-28T19:53:06.834Z,9.50
2019-01-28T19:55:36.346Z,9.45
2019-01-28T19:58:06.014Z,9.90
2019-01-28T20:00:35.382Z,8.33
2019-01-28T20:03:06.673Z,9.45
2019-01-28T20:05:36.147Z,8.98
2019-01-28T20:08:07.056Z,9.03
2019-01-28T20:10:36.523Z,9.33
2019-01-28T20:13:06.001Z,9.10
2019-01-28T20:15:35.385Z,8.55
2019-01-28T20:18:05.381Z,9.05
2019-01-28T20:20:34.770Z,9.08
2019-01-28T20:23:04.226Z,8.70
2019-01-28T20:25:35.556Z,8.93
2019-01-28T20:28:04.776Z,7.85
2019-01-28T20:30:34.185Z,8.30
2019-01-28T20:33:03.571Z,8.70
2019-01-28T20:35:33.037Z,8.58
2019-01-28T20:38:03.077Z,8.08
2019-01-28T20:40:32.496Z,9.73
2019-01-28T20:43:01.888Z,8.73
2019-01-28T20:45:31.334Z,9.00
2019-01-28T20:48:00.718Z,9.05
2019-01-28T20:50:30.171Z,8.90
2019-01-28T20:52:59.603Z,8.83
2019-01-28T20:55:29.019Z,8.53
2019-01-28T20:57:58.558Z,9.18
2019-01-28T21:00:28.356Z,9.03
2019-01-28T21:02:58.196Z,8.70
2019-01-28T21:05:27.731Z,8.75
2019-01-28T21:07:57.101Z,8.33
2019-01-28T21:10:26.565Z,8.75
2019-01-28T21:12:56.022Z,8.75
2019-01-28T21:15:25.583Z,9.45
2019-01-28T21:17:55.010Z,10.18
2019-01-28T21:20:24.454Z,9.43
2019-01-28T21:22:53.879Z,8.93
2019-01-28T21:25:25.577Z,9.35
2019-01-28T21:27:55.094Z,9.50
2019-01-28T21:30:29.755Z,9.20
2019-01-28T21:32:59.272Z,9.40
2019-01-28T21:35:46.479Z,9.45
2019-01-28T21:38:20.309Z,9.08
2019-01-28T21:40:49.709Z,9.78
2019-01-28T21:43:19.151Z,9.08
2019-01-28T21:45:48.518Z,9.45
2019-01-28T21:48:17.983Z,9.13
2019-01-28T21:50:47.377Z,8.93
2019-01-28T21:53:16.791Z,10.63
2019-01-28T21:55:46.244Z,8.98
2019-01-28T21:58:16.591Z,8.98
2019-01-28T22:00:45.991Z,8.85
2019-01-28T22:03:15.432Z,9.15
2019-01-28T22:05:44.940Z,10.08
2019-01-28T22:08:14.328Z,8.83
2019-01-28T22:10:44.626Z,8.60
2019-01-28T22:13:14.187Z,9.38
2019-01-28T22:15:43.585Z,9.78
2019-01-28T22:18:13.005Z,9.70
2019-01-28T22:20:42.448Z,8.63
2019-01-28T22:23:11.906Z,9.83
2019-01-28T22:25:41.308Z,9.58
2019-01-28T22:28:10.680Z,8.90
2019-01-28T22:30:41.748Z,9.45
2019-01-28T22:33:11.239Z,9.03
2019-01-28T22:35:40.631Z,10.28
2019-01-28T22:38:10.078Z,9.43
2019-01-28T22:40:39.591Z,9.28
2019-01-28T22:43:08.989Z,9.48
2019-01-28T22:45:38.373Z,9.03
2019-01-28T22:48:07.929Z,9.15
2019-01-28T22:50:37.310Z,10.03
2019-01-28T22:53:06.737Z,9.00
2019-01-28T22:55:36.678Z,9.20
2019-01-28T22:58:06.265Z,9.30
2019-01-28T23:00:49.280Z,10.23
2019-01-28T23:03:20.383Z,9.30
2019-01-28T23:05:49.745Z,9.28
2019-01-28T23:08:19.237Z,9.08
2019-01-28T23:10:48.570Z,8.93
2019-01-28T23:13:17.928Z,9.80
2019-01-28T23:15:47.408Z,9.85
2019-01-28T23:18:16.784Z,9.33
2019-01-28T23:20:46.169Z,9.65
2019-01-28T23:23:15.590Z,9.23
2019-01-28T23:25:44.968Z,9.40
2019-01-28T23:28:14.516Z,9.45
2019-01-28T23:30:43.889Z,9.13
2019-01-28T23:33:15.420Z,10.32
2019-01-28T23:35:44.761Z,9.10
2019-01-28T23:38:14.146Z,9.75
2019-01-28T23:40:43.553Z,9.15
2019-01-28T23:43:12.906Z,9.43
2019-01-28T23:45:42.401Z,8.95
2019-01-28T23:48:11.754Z,8.40
2019-01-28T23:50:41.158Z,8.83
2019-01-28T23:53:10.556Z,9.35
2019-01-28T23:55:39.929Z,8.40
2019-01-28T23:58:11.226Z,9.50
